sensor_id;sensor_type;location;lat;lon;timestamp;P1;durP1;ratioP1;P2;durP2;ratioP2
74551;SDS011;63025;55.472;38.432;2024-03-25T00:01:01;63.22;;;27.77;;
74551;SDS011;63025;55.472;38.432;2024-03-25T00:03:27;68.28;;;27.85;;
74551;SDS011;63025;55.472;38.432;2024-03-25T00:05:53;62.83;;;27.92;;
74551;SDS011;63025;55.472;38.432;2024-03-25T00:08:19;59.53;;;26.95;;
74551;SDS011;63025;55.472;38.432;2024-03-25T00:10:44;59.33;;;26.92;;
74551;SDS011;63025;55.472;38.432;2024-03-25T00:13:10;65.45;;;27.58;;
74551;SDS011;63025;55.472;38.432;2024-03-25T00:15:36;65.80;;;27.23;;
74551;SDS011;63025;55.472;38.432;2024-03-25T00:18:06;64.68;;;27.30;;
74551;SDS011;63025;55.472;38.432;2024-03-25T00:20:32;59.13;;;26.85;;
74551;SDS011;63025;55.472;38.432;2024-03-25T00:22:58;61.97;;;25.60;;
74551;SDS011;63025;55.472;38.432;2024-03-25T00:25:23;64.63;;;26.98;;
74551;SDS011;63025;55.472;38.432;2024-03-25T00:27:49;71.78;;;27.58;;
74551;SDS011;63025;55.472;38.432;2024-03-25T00:30:15;64.63;;;27.25;;
74551;SDS011;63025;55.472;38.432;2024-03-25T00:32:41;74.28;;;27.25;;
74551;SDS011;63025;55.472;38.432;2024-03-25T00:35:07;69.60;;;27.88;;
74551;SDS011;63025;55.472;38.432;2024-03-25T00:37:33;66.57;;;28.25;;
74551;SDS011;63025;55.472;38.432;2024-03-25T00:39:58;67.22;;;27.55;;
74551;SDS011;63025;55.472;38.432;2024-03-25T00:42:24;65.45;;;27.48;;
74551;SDS011;63025;55.472;38.432;2024-03-25T00:44:50;71.57;;;25.90;;
74551;SDS011;63025;55.472;38.432;2024-03-25T00:47:16;59.28;;;26.20;;
74551;SDS011;63025;55.472;38.432;2024-03-25T00:49:42;61.28;;;24.55;;
74551;SDS011;63025;55.472;38.432;2024-03-25T00:52:07;55.03;;;22.77;;
74551;SDS011;63025;55.472;38.432;2024-03-25T00:54:33;39.17;;;18.17;;
74551;SDS011;63025;55.472;38.432;2024-03-25T00:56:59;30.45;;;14.40;;
74551;SDS011;63025;55.472;38.432;2024-03-25T00:59:25;24.27;;;11.13;;
74551;SDS011;63025;55.472;38.432;2024-03-25T01:01:51;22.10;;;10.45;;
74551;SDS011;63025;55.472;38.432;2024-03-25T01:04:16;12.68;;;6.22;;
74551;SDS011;63025;55.472;38.432;2024-03-25T01:06:43;7.47;;;4.63;;
74551;SDS011;63025;55.472;38.432;2024-03-25T01:09:09;9.13;;;5.15;;
74551;SDS011;63025;55.472;38.432;2024-03-25T01:11:35;8.60;;;3.78;;
74551;SDS011;63025;55.472;38.432;2024-03-25T01:14:01;7.45;;;3.00;;
74551;SDS011;63025;55.472;38.432;2024-03-25T01:16:27;6.60;;;3.50;;
74551;SDS011;63025;55.472;38.432;2024-03-25T01:18:53;6.57;;;3.00;;
74551;SDS011;63025;55.472;38.432;2024-03-25T01:21:19;7.80;;;3.25;;
74551;SDS011;63025;55.472;38.432;2024-03-25T01:23:45;4.82;;;2.60;;
74551;SDS011;63025;55.472;38.432;2024-03-25T01:26:11;4.10;;;1.80;;
74551;SDS011;63025;55.472;38.432;2024-03-25T01:28:37;4.25;;;2.00;;
74551;SDS011;63025;55.472;38.432;2024-03-25T01:31:03;4.15;;;1.83;;
74551;SDS011;63025;55.472;38.432;2024-03-25T01:33:29;3.55;;;1.80;;
74551;SDS011;63025;55.472;38.432;2024-03-25T01:35:55;3.25;;;1.50;;
74551;SDS011;63025;55.472;38.432;2024-03-25T01:38:21;2.40;;;1.10;;
74551;SDS011;63025;55.472;38.432;2024-03-25T01:40:47;2.70;;;1.33;;
74551;SDS011;63025;55.472;38.432;2024-03-25T01:43:13;2.50;;;1.20;;
74551;SDS011;63025;55.472;38.432;2024-03-25T01:45:39;2.60;;;1.20;;
74551;SDS011;63025;55.472;38.432;2024-03-25T01:48:06;2.30;;;0.98;;
74551;SDS011;63025;55.472;38.432;2024-03-25T01:50:35;2.83;;;1.20;;
74551;SDS011;63025;55.472;38.432;2024-03-25T01:53:03;2.72;;;1.02;;
74551;SDS011;63025;55.472;38.432;2024-03-25T01:55:29;2.08;;;0.93;;
74551;SDS011;63025;55.472;38.432;2024-03-25T01:57:58;1.77;;;0.80;;
74551;SDS011;63025;55.472;38.432;2024-03-25T02:00:24;2.10;;;0.90;;
74551;SDS011;63025;55.472;38.432;2024-03-25T02:02:52;1.60;;;0.88;;
74551;SDS011;63025;55.472;38.432;2024-03-25T02:05:18;1.65;;;0.80;;
74551;SDS011;63025;55.472;38.432;2024-03-25T02:07:44;1.55;;;0.75;;
74551;SDS011;63025;55.472;38.432;2024-03-25T02:10:11;1.90;;;0.80;;
74551;SDS011;63025;55.472;38.432;2024-03-25T02:12:44;1.88;;;0.70;;
74551;SDS011;63025;55.472;38.432;2024-03-25T02:15:12;1.30;;;0.60;;
74551;SDS011;63025;55.472;38.432;2024-03-25T02:17:39;1.73;;;0.63;;
74551;SDS011;63025;55.472;38.432;2024-03-25T02:20:06;2.03;;;0.60;;
74551;SDS011;63025;55.472;38.432;2024-03-25T02:22:34;1.27;;;0.63;;
74551;SDS011;63025;55.472;38.432;2024-03-25T02:25:04;1.10;;;0.60;;
74551;SDS011;63025;55.472;38.432;2024-03-25T02:27:32;1.25;;;0.60;;
74551;SDS011;63025;55.472;38.432;2024-03-25T02:30:02;1.88;;;0.77;;
74551;SDS011;63025;55.472;38.432;2024-03-25T02:32:33;1.30;;;0.68;;
74551;SDS011;63025;55.472;38.432;2024-03-25T02:34:59;1.75;;;0.60;;
74551;SDS011;63025;55.472;38.432;2024-03-25T02:37:28;1.35;;;0.60;;
74551;SDS011;63025;55.472;38.432;2024-03-25T02:39:56;1.40;;;0.60;;
74551;SDS011;63025;55.472;38.432;2024-03-25T02:42:24;1.10;;;0.50;;
74551;SDS011;63025;55.472;38.432;2024-03-25T02:44:52;1.50;;;0.60;;
74551;SDS011;63025;55.472;38.432;2024-03-25T02:47:19;2.58;;;0.70;;
74551;SDS011;63025;55.472;38.432;2024-03-25T02:49:45;1.20;;;0.60;;
74551;SDS011;63025;55.472;38.432;2024-03-25T02:52:11;1.35;;;0.50;;
74551;SDS011;63025;55.472;38.432;2024-03-25T02:54:37;0.95;;;0.50;;
74551;SDS011;63025;55.472;38.432;2024-03-25T02:57:03;1.20;;;0.60;;
74551;SDS011;63025;55.472;38.432;2024-03-25T02:59:29;1.45;;;0.63;;
74551;SDS011;63025;55.472;38.432;2024-03-25T03:01:55;1.67;;;0.60;;
74551;SDS011;63025;55.472;38.432;2024-03-25T03:04:21;1.50;;;0.60;;
74551;SDS011;63025;55.472;38.432;2024-03-25T03:06:46;1.38;;;0.60;;
74551;SDS011;63025;55.472;38.432;2024-03-25T03:09:12;1.67;;;0.70;;
74551;SDS011;63025;55.472;38.432;2024-03-25T03:11:38;2.63;;;0.80;;
74551;SDS011;63025;55.472;38.432;2024-03-25T03:14:04;2.25;;;0.90;;
74551;SDS011;63025;55.472;38.432;2024-03-25T03:16:30;1.20;;;0.60;;
74551;SDS011;63025;55.472;38.432;2024-03-25T03:18:55;1.75;;;0.70;;
74551;SDS011;63025;55.472;38.432;2024-03-25T03:21:21;2.70;;;0.98;;
74551;SDS011;63025;55.472;38.432;2024-03-25T03:23:47;2.10;;;1.00;;
74551;SDS011;63025;55.472;38.432;2024-03-25T03:26:13;1.63;;;0.73;;
74551;SDS011;63025;55.472;38.432;2024-03-25T03:28:39;2.20;;;1.00;;
74551;SDS011;63025;55.472;38.432;2024-03-25T03:31:06;1.70;;;0.80;;
74551;SDS011;63025;55.472;38.432;2024-03-25T03:33:32;1.95;;;0.98;;
74551;SDS011;63025;55.472;38.432;2024-03-25T03:35:58;2.17;;;0.90;;
74551;SDS011;63025;55.472;38.432;2024-03-25T03:38:24;1.77;;;0.80;;
74551;SDS011;63025;55.472;38.432;2024-03-25T03:40:59;1.88;;;0.80;;
74551;SDS011;63025;55.472;38.432;2024-03-25T03:43:28;3.45;;;0.85;;
74551;SDS011;63025;55.472;38.432;2024-03-25T03:45:55;2.08;;;0.90;;
74551;SDS011;63025;55.472;38.432;2024-03-25T03:48:20;1.88;;;0.90;;
74551;SDS011;63025;55.472;38.432;2024-03-25T03:50:46;1.75;;;0.90;;
74551;SDS011;63025;55.472;38.432;2024-03-25T03:53:12;2.10;;;0.90;;
74551;SDS011;63025;55.472;38.432;2024-03-25T03:55:39;1.90;;;0.93;;
74551;SDS011;63025;55.472;38.432;2024-03-25T03:58:04;1.85;;;0.90;;
74551;SDS011;63025;55.472;38.432;2024-03-25T04:00:34;2.10;;;1.00;;
74551;SDS011;63025;55.472;38.432;2024-03-25T04:03:01;2.28;;;1.20;;
74551;SDS011;63025;55.472;38.432;2024-03-25T04:05:28;2.60;;;1.30;;
74551;SDS011;63025;55.472;38.432;2024-03-25T04:07:55;2.10;;;1.10;;
74551;SDS011;63025;55.472;38.432;2024-03-25T04:10:22;2.53;;;1.30;;
74551;SDS011;63025;55.472;38.432;2024-03-25T04:12:48;2.45;;;1.10;;
74551;SDS011;63025;55.472;38.432;2024-03-25T04:15:14;2.60;;;1.33;;
74551;SDS011;63025;55.472;38.432;2024-03-25T04:17:43;2.70;;;1.30;;
74551;SDS011;63025;55.472;38.432;2024-03-25T04:20:11;2.45;;;1.20;;
74551;SDS011;63025;55.472;38.432;2024-03-25T04:22:40;2.20;;;1.10;;
74551;SDS011;63025;55.472;38.432;2024-03-25T04:25:08;3.35;;;1.40;;
74551;SDS011;63025;55.472;38.432;2024-03-25T04:27:39;4.75;;;1.70;;
74551;SDS011;63025;55.472;38.432;2024-03-25T04:30:06;4.20;;;1.77;;
74551;SDS011;63025;55.472;38.432;2024-03-25T04:32:33;3.08;;;1.25;;
74551;SDS011;63025;55.472;38.432;2024-03-25T04:35:00;7.18;;;2.10;;
74551;SDS011;63025;55.472;38.432;2024-03-25T04:37:29;4.63;;;2.30;;
74551;SDS011;63025;55.472;38.432;2024-03-25T04:39:56;3.33;;;1.50;;
74551;SDS011;63025;55.472;38.432;2024-03-25T04:42:22;3.58;;;1.70;;
74551;SDS011;63025;55.472;38.432;2024-03-25T04:44:49;2.30;;;1.20;;
74551;SDS011;63025;55.472;38.432;2024-03-25T04:47:16;2.65;;;1.40;;
74551;SDS011;63025;55.472;38.432;2024-03-25T04:49:42;2.78;;;1.40;;
74551;SDS011;63025;55.472;38.432;2024-03-25T04:52:09;2.90;;;1.60;;
74551;SDS011;63025;55.472;38.432;2024-03-25T04:54:35;2.50;;;1.40;;
74551;SDS011;63025;55.472;38.432;2024-03-25T04:57:00;2.70;;;1.45;;
74551;SDS011;63025;55.472;38.432;2024-03-25T04:59:28;3.80;;;1.63;;
74551;SDS011;63025;55.472;38.432;2024-03-25T05:01:54;2.67;;;1.52;;
74551;SDS011;63025;55.472;38.432;2024-03-25T05:04:19;2.90;;;1.40;;
74551;SDS011;63025;55.472;38.432;2024-03-25T05:06:45;3.33;;;1.38;;
74551;SDS011;63025;55.472;38.432;2024-03-25T05:09:11;3.00;;;1.40;;
74551;SDS011;63025;55.472;38.432;2024-03-25T05:11:37;3.45;;;1.60;;
74551;SDS011;63025;55.472;38.432;2024-03-25T05:14:03;3.22;;;1.40;;
74551;SDS011;63025;55.472;38.432;2024-03-25T05:16:29;3.30;;;1.50;;
74551;SDS011;63025;55.472;38.432;2024-03-25T05:18:55;2.95;;;1.48;;
74551;SDS011;63025;55.472;38.432;2024-03-25T05:21:21;3.25;;;1.70;;
74551;SDS011;63025;55.472;38.432;2024-03-25T05:23:47;3.70;;;1.52;;
74551;SDS011;63025;55.472;38.432;2024-03-25T05:26:13;3.40;;;1.52;;
74551;SDS011;63025;55.472;38.432;2024-03-25T05:28:39;2.88;;;1.45;;
74551;SDS011;63025;55.472;38.432;2024-03-25T05:31:05;3.38;;;1.50;;
74551;SDS011;63025;55.472;38.432;2024-03-25T05:33:32;3.13;;;1.55;;
74551;SDS011;63025;55.472;38.432;2024-03-25T05:35:58;5.18;;;1.48;;
74551;SDS011;63025;55.472;38.432;2024-03-25T05:38:24;3.58;;;1.52;;
74551;SDS011;63025;55.472;38.432;2024-03-25T05:40:50;2.80;;;1.60;;
74551;SDS011;63025;55.472;38.432;2024-03-25T05:43:16;3.80;;;2.05;;
74551;SDS011;63025;55.472;38.432;2024-03-25T05:45:49;4.97;;;2.78;;
74551;SDS011;63025;55.472;38.432;2024-03-25T05:48:16;3.80;;;2.03;;
74551;SDS011;63025;55.472;38.432;2024-03-25T05:50:43;5.05;;;1.67;;
74551;SDS011;63025;55.472;38.432;2024-03-25T05:53:09;3.47;;;1.77;;
74551;SDS011;63025;55.472;38.432;2024-03-25T05:55:34;3.20;;;1.60;;
74551;SDS011;63025;55.472;38.432;2024-03-25T05:58:00;3.28;;;1.75;;
74551;SDS011;63025;55.472;38.432;2024-03-25T06:00:26;3.53;;;1.95;;
74551;SDS011;63025;55.472;38.432;2024-03-25T06:02:53;4.13;;;1.80;;
74551;SDS011;63025;55.472;38.432;2024-03-25T06:05:19;7.18;;;2.00;;
74551;SDS011;63025;55.472;38.432;2024-03-25T06:07:45;3.72;;;2.00;;
74551;SDS011;63025;55.472;38.432;2024-03-25T06:10:11;5.35;;;2.00;;
74551;SDS011;63025;55.472;38.432;2024-03-25T06:12:37;7.90;;;3.67;;
74551;SDS011;63025;55.472;38.432;2024-03-25T06:15:03;4.47;;;2.30;;
74551;SDS011;63025;55.472;38.432;2024-03-25T06:17:29;5.93;;;2.30;;
74551;SDS011;63025;55.472;38.432;2024-03-25T06:19:55;4.18;;;2.42;;
74551;SDS011;63025;55.472;38.432;2024-03-25T06:22:21;4.80;;;2.38;;
74551;SDS011;63025;55.472;38.432;2024-03-25T06:24:46;5.00;;;2.08;;
74551;SDS011;63025;55.472;38.432;2024-03-25T06:27:14;3.75;;;2.05;;
74551;SDS011;63025;55.472;38.432;2024-03-25T06:29:40;4.32;;;2.20;;
74551;SDS011;63025;55.472;38.432;2024-03-25T06:32:06;6.20;;;2.17;;
74551;SDS011;63025;55.472;38.432;2024-03-25T06:34:51;3.88;;;2.20;;
74551;SDS011;63025;55.472;38.432;2024-03-25T06:37:16;4.45;;;2.22;;
74551;SDS011;63025;55.472;38.432;2024-03-25T06:39:42;3.03;;;1.90;;
74551;SDS011;63025;55.472;38.432;2024-03-25T06:42:08;3.63;;;2.00;;
74551;SDS011;63025;55.472;38.432;2024-03-25T06:44:34;3.40;;;1.88;;
74551;SDS011;63025;55.472;38.432;2024-03-25T06:46:59;4.13;;;2.00;;
74551;SDS011;63025;55.472;38.432;2024-03-25T06:49:25;4.20;;;1.98;;
74551;SDS011;63025;55.472;38.432;2024-03-25T06:51:51;5.05;;;2.20;;
74551;SDS011;63025;55.472;38.432;2024-03-25T06:54:17;3.38;;;2.10;;
74551;SDS011;63025;55.472;38.432;2024-03-25T06:56:43;5.18;;;2.00;;
74551;SDS011;63025;55.472;38.432;2024-03-25T06:59:09;4.50;;;2.20;;
74551;SDS011;63025;55.472;38.432;2024-03-25T07:01:34;3.88;;;1.92;;
74551;SDS011;63025;55.472;38.432;2024-03-25T07:04:01;3.05;;;1.83;;
74551;SDS011;63025;55.472;38.432;2024-03-25T07:06:28;3.10;;;1.95;;
74551;SDS011;63025;55.472;38.432;2024-03-25T07:08:54;3.42;;;1.90;;
74551;SDS011;63025;55.472;38.432;2024-03-25T07:11:20;5.25;;;2.13;;
74551;SDS011;63025;55.472;38.432;2024-03-25T07:13:46;4.65;;;2.05;;
74551;SDS011;63025;55.472;38.432;2024-03-25T07:16:12;3.58;;;1.70;;
74551;SDS011;63025;55.472;38.432;2024-03-25T07:18:38;3.20;;;1.85;;
74551;SDS011;63025;55.472;38.432;2024-03-25T07:21:04;3.40;;;2.13;;
74551;SDS011;63025;55.472;38.432;2024-03-25T07:23:30;3.40;;;2.05;;
74551;SDS011;63025;55.472;38.432;2024-03-25T07:25:56;3.65;;;2.13;;
74551;SDS011;63025;55.472;38.432;2024-03-25T07:28:21;3.85;;;2.13;;
74551;SDS011;63025;55.472;38.432;2024-03-25T07:30:49;3.83;;;1.98;;
74551;SDS011;63025;55.472;38.432;2024-03-25T07:33:15;4.38;;;2.22;;
74551;SDS011;63025;55.472;38.432;2024-03-25T07:35:44;3.42;;;2.13;;
74551;SDS011;63025;55.472;38.432;2024-03-25T07:38:10;4.20;;;2.00;;
74551;SDS011;63025;55.472;38.432;2024-03-25T07:40:36;5.15;;;2.30;;
74551;SDS011;63025;55.472;38.432;2024-03-25T07:43:02;3.25;;;1.98;;
74551;SDS011;63025;55.472;38.432;2024-03-25T07:45:28;4.85;;;2.40;;
74551;SDS011;63025;55.472;38.432;2024-03-25T07:47:54;4.57;;;2.22;;
74551;SDS011;63025;55.472;38.432;2024-03-25T07:50:20;4.35;;;2.13;;
74551;SDS011;63025;55.472;38.432;2024-03-25T07:52:46;3.88;;;2.28;;
74551;SDS011;63025;55.472;38.432;2024-03-25T07:55:12;3.60;;;2.30;;
74551;SDS011;63025;55.472;38.432;2024-03-25T07:57:38;4.43;;;2.40;;
74551;SDS011;63025;55.472;38.432;2024-03-25T08:00:04;7.72;;;3.03;;
74551;SDS011;63025;55.472;38.432;2024-03-25T08:02:40;5.97;;;2.80;;
74551;SDS011;63025;55.472;38.432;2024-03-25T08:05:06;3.58;;;2.47;;
74551;SDS011;63025;55.472;38.432;2024-03-25T08:07:32;3.80;;;2.17;;
74551;SDS011;63025;55.472;38.432;2024-03-25T08:09:58;4.15;;;2.60;;
74551;SDS011;63025;55.472;38.432;2024-03-25T08:12:24;3.67;;;2.33;;
74551;SDS011;63025;55.472;38.432;2024-03-25T08:14:49;4.80;;;2.47;;
74551;SDS011;63025;55.472;38.432;2024-03-25T08:17:15;4.35;;;2.95;;
74551;SDS011;63025;55.472;38.432;2024-03-25T08:19:41;5.03;;;2.60;;
74551;SDS011;63025;55.472;38.432;2024-03-25T08:22:07;4.50;;;2.50;;
74551;SDS011;63025;55.472;38.432;2024-03-25T08:24:33;3.75;;;2.55;;
74551;SDS011;63025;55.472;38.432;2024-03-25T08:26:58;4.50;;;2.67;;
74551;SDS011;63025;55.472;38.432;2024-03-25T08:29:24;3.83;;;2.40;;
74551;SDS011;63025;55.472;38.432;2024-03-25T08:31:50;4.20;;;2.47;;
74551;SDS011;63025;55.472;38.432;2024-03-25T08:34:16;4.90;;;2.85;;
74551;SDS011;63025;55.472;38.432;2024-03-25T08:36:42;5.43;;;3.10;;
74551;SDS011;63025;55.472;38.432;2024-03-25T08:39:07;5.20;;;2.90;;
74551;SDS011;63025;55.472;38.432;2024-03-25T08:41:33;4.25;;;2.78;;
74551;SDS011;63025;55.472;38.432;2024-03-25T08:43:59;3.70;;;2.72;;
74551;SDS011;63025;55.472;38.432;2024-03-25T08:46:25;5.13;;;2.50;;
74551;SDS011;63025;55.472;38.432;2024-03-25T08:48:52;4.10;;;2.53;;
74551;SDS011;63025;55.472;38.432;2024-03-25T08:51:18;4.00;;;2.65;;
74551;SDS011;63025;55.472;38.432;2024-03-25T08:53:43;4.30;;;2.90;;
74551;SDS011;63025;55.472;38.432;2024-03-25T08:56:09;5.80;;;3.28;;
74551;SDS011;63025;55.472;38.432;2024-03-25T08:58:35;5.05;;;2.70;;
74551;SDS011;63025;55.472;38.432;2024-03-25T09:01:01;6.18;;;2.83;;
74551;SDS011;63025;55.472;38.432;2024-03-25T09:03:28;6.13;;;2.85;;
74551;SDS011;63025;55.472;38.432;2024-03-25T09:05:54;4.13;;;3.03;;
74551;SDS011;63025;55.472;38.432;2024-03-25T09:08:21;4.07;;;2.72;;
74551;SDS011;63025;55.472;38.432;2024-03-25T09:10:47;4.43;;;2.85;;
74551;SDS011;63025;55.472;38.432;2024-03-25T09:13:29;5.38;;;2.65;;
74551;SDS011;63025;55.472;38.432;2024-03-25T09:15:55;3.85;;;3.13;;
74551;SDS011;63025;55.472;38.432;2024-03-25T09:18:22;4.38;;;2.83;;
74551;SDS011;63025;55.472;38.432;2024-03-25T09:20:47;5.30;;;2.95;;
74551;SDS011;63025;55.472;38.432;2024-03-25T09:23:13;6.07;;;2.72;;
74551;SDS011;63025;55.472;38.432;2024-03-25T09:25:39;4.75;;;2.88;;
74551;SDS011;63025;55.472;38.432;2024-03-25T09:28:05;5.03;;;3.20;;
74551;SDS011;63025;55.472;38.432;2024-03-25T09:30:32;4.70;;;2.92;;
74551;SDS011;63025;55.472;38.432;2024-03-25T09:32:57;5.30;;;3.15;;
74551;SDS011;63025;55.472;38.432;2024-03-25T09:35:23;4.50;;;2.92;;
74551;SDS011;63025;55.472;38.432;2024-03-25T09:37:49;4.13;;;3.15;;
74551;SDS011;63025;55.472;38.432;2024-03-25T09:40:15;4.38;;;3.13;;
74551;SDS011;63025;55.472;38.432;2024-03-25T09:45:13;5.95;;;3.38;;
74551;SDS011;63025;55.472;38.432;2024-03-25T09:47:45;4.13;;;3.30;;
74551;SDS011;63025;55.472;38.432;2024-03-25T09:50:16;4.57;;;3.05;;
74551;SDS011;63025;55.472;38.432;2024-03-25T09:52:45;4.90;;;3.35;;
74551;SDS011;63025;55.472;38.432;2024-03-25T09:55:15;3.83;;;2.78;;
74551;SDS011;63025;55.472;38.432;2024-03-25T09:57:44;5.15;;;3.17;;
74551;SDS011;63025;55.472;38.432;2024-03-25T10:00:10;4.28;;;3.05;;
74551;SDS011;63025;55.472;38.432;2024-03-25T10:02:41;5.55;;;3.50;;
74551;SDS011;63025;55.472;38.432;2024-03-25T10:05:08;4.57;;;3.28;;
74551;SDS011;63025;55.472;38.432;2024-03-25T10:07:34;4.53;;;3.13;;
74551;SDS011;63025;55.472;38.432;2024-03-25T10:10:04;5.22;;;3.33;;
74551;SDS011;63025;55.472;38.432;2024-03-25T10:12:31;5.70;;;3.40;;
74551;SDS011;63025;55.472;38.432;2024-03-25T10:14:57;6.65;;;3.60;;
74551;SDS011;63025;55.472;38.432;2024-03-25T10:17:23;6.20;;;3.95;;
74551;SDS011;63025;55.472;38.432;2024-03-25T10:19:49;6.68;;;3.50;;
74551;SDS011;63025;55.472;38.432;2024-03-25T10:22:15;5.72;;;3.65;;
74551;SDS011;63025;55.472;38.432;2024-03-25T10:24:42;5.43;;;3.50;;
74551;SDS011;63025;55.472;38.432;2024-03-25T10:27:21;4.75;;;3.17;;
74551;SDS011;63025;55.472;38.432;2024-03-25T10:29:48;5.57;;;3.35;;
74551;SDS011;63025;55.472;38.432;2024-03-25T10:32:17;4.85;;;3.28;;
74551;SDS011;63025;55.472;38.432;2024-03-25T10:34:43;4.20;;;3.10;;
74551;SDS011;63025;55.472;38.432;2024-03-25T10:37:09;5.43;;;3.58;;
74551;SDS011;63025;55.472;38.432;2024-03-25T10:39:42;6.57;;;3.30;;
74551;SDS011;63025;55.472;38.432;2024-03-25T10:42:13;5.28;;;3.10;;
74551;SDS011;63025;55.472;38.432;2024-03-25T10:44:40;7.25;;;3.30;;
74551;SDS011;63025;55.472;38.432;2024-03-25T10:47:06;6.00;;;3.13;;
74551;SDS011;63025;55.472;38.432;2024-03-25T10:52:13;5.90;;;3.40;;
74551;SDS011;63025;55.472;38.432;2024-03-25T10:54:41;5.38;;;3.70;;
74551;SDS011;63025;55.472;38.432;2024-03-25T10:57:10;5.00;;;3.53;;
74551;SDS011;63025;55.472;38.432;2024-03-25T10:59:38;5.00;;;3.42;;
74551;SDS011;63025;55.472;38.432;2024-03-25T11:02:07;6.57;;;3.20;;
74551;SDS011;63025;55.472;38.432;2024-03-25T11:04:33;5.78;;;3.58;;
74551;SDS011;63025;55.472;38.432;2024-03-25T11:07:13;6.50;;;3.40;;
74551;SDS011;63025;55.472;38.432;2024-03-25T11:09:40;5.43;;;3.65;;
74551;SDS011;63025;55.472;38.432;2024-03-25T11:12:06;5.43;;;3.40;;
74551;SDS011;63025;55.472;38.432;2024-03-25T11:14:35;6.63;;;3.83;;
74551;SDS011;63025;55.472;38.432;2024-03-25T11:17:01;4.82;;;3.53;;
74551;SDS011;63025;55.472;38.432;2024-03-25T11:19:27;6.10;;;3.60;;
74551;SDS011;63025;55.472;38.432;2024-03-25T11:22:05;5.22;;;3.30;;
74551;SDS011;63025;55.472;38.432;2024-03-25T11:24:43;4.43;;;3.30;;
74551;SDS011;63025;55.472;38.432;2024-03-25T11:27:09;6.05;;;3.95;;
74551;SDS011;63025;55.472;38.432;2024-03-25T11:29:35;6.35;;;3.88;;
74551;SDS011;63025;55.472;38.432;2024-03-25T11:32:03;5.57;;;3.90;;
74551;SDS011;63025;55.472;38.432;2024-03-25T11:34:30;7.50;;;3.95;;
74551;SDS011;63025;55.472;38.432;2024-03-25T11:36:56;8.43;;;4.00;;
74551;SDS011;63025;55.472;38.432;2024-03-25T11:39:26;7.20;;;4.30;;
74551;SDS011;63025;55.472;38.432;2024-03-25T11:41:52;7.28;;;4.30;;
74551;SDS011;63025;55.472;38.432;2024-03-25T11:44:19;5.57;;;3.95;;
74551;SDS011;63025;55.472;38.432;2024-03-25T11:46:45;6.22;;;4.03;;
74551;SDS011;63025;55.472;38.432;2024-03-25T11:49:17;9.30;;;4.32;;
74551;SDS011;63025;55.472;38.432;2024-03-25T11:51:43;7.78;;;4.03;;
74551;SDS011;63025;55.472;38.432;2024-03-25T11:54:12;6.30;;;4.10;;
74551;SDS011;63025;55.472;38.432;2024-03-25T11:56:40;6.45;;;4.07;;
74551;SDS011;63025;55.472;38.432;2024-03-25T11:59:06;9.70;;;4.47;;
74551;SDS011;63025;55.472;38.432;2024-03-25T12:01:33;12.27;;;3.97;;
74551;SDS011;63025;55.472;38.432;2024-03-25T12:04:09;11.93;;;4.30;;
74551;SDS011;63025;55.472;38.432;2024-03-25T12:06:36;10.70;;;4.45;;
74551;SDS011;63025;55.472;38.432;2024-03-25T12:09:02;8.27;;;3.95;;
74551;SDS011;63025;55.472;38.432;2024-03-25T12:11:46;5.28;;;3.78;;
74551;SDS011;63025;55.472;38.432;2024-03-25T12:14:14;6.47;;;3.88;;
74551;SDS011;63025;55.472;38.432;2024-03-25T12:16:41;8.95;;;4.07;;
74551;SDS011;63025;55.472;38.432;2024-03-25T12:19:07;8.02;;;4.18;;
74551;SDS011;63025;55.472;38.432;2024-03-25T12:21:34;5.72;;;4.13;;
74551;SDS011;63025;55.472;38.432;2024-03-25T12:23:59;7.35;;;3.97;;
74551;SDS011;63025;55.472;38.432;2024-03-25T12:26:25;7.93;;;4.40;;
74551;SDS011;63025;55.472;38.432;2024-03-25T12:28:51;6.55;;;4.35;;
74551;SDS011;63025;55.472;38.432;2024-03-25T12:31:18;8.05;;;4.68;;
74551;SDS011;63025;55.472;38.432;2024-03-25T12:33:44;9.93;;;4.50;;
74551;SDS011;63025;55.472;38.432;2024-03-25T12:36:13;6.70;;;4.18;;
74551;SDS011;63025;55.472;38.432;2024-03-25T12:38:39;8.25;;;3.53;;
74551;SDS011;63025;55.472;38.432;2024-03-25T12:41:05;9.32;;;4.20;;
74551;SDS011;63025;55.472;38.432;2024-03-25T12:43:32;7.95;;;4.10;;
74551;SDS011;63025;55.472;38.432;2024-03-25T12:45:59;6.35;;;4.07;;
74551;SDS011;63025;55.472;38.432;2024-03-25T12:48:25;7.90;;;4.15;;
74551;SDS011;63025;55.472;38.432;2024-03-25T12:50:51;6.82;;;3.97;;
74551;SDS011;63025;55.472;38.432;2024-03-25T12:53:19;9.13;;;4.72;;
74551;SDS011;63025;55.472;38.432;2024-03-25T12:55:45;7.95;;;4.43;;
74551;SDS011;63025;55.472;38.432;2024-03-25T12:58:11;7.75;;;4.22;;
74551;SDS011;63025;55.472;38.432;2024-03-25T13:00:37;7.68;;;4.28;;
74551;SDS011;63025;55.472;38.432;2024-03-25T13:03:05;7.40;;;4.20;;
74551;SDS011;63025;55.472;38.432;2024-03-25T13:05:31;9.10;;;4.70;;
74551;SDS011;63025;55.472;38.432;2024-03-25T13:08:13;6.47;;;4.15;;
74551;SDS011;63025;55.472;38.432;2024-03-25T13:10:39;8.25;;;4.03;;
74551;SDS011;63025;55.472;38.432;2024-03-25T13:13:05;7.70;;;3.97;;
74551;SDS011;63025;55.472;38.432;2024-03-25T13:15:31;7.88;;;4.28;;
74551;SDS011;63025;55.472;38.432;2024-03-25T13:17:57;10.18;;;3.90;;
74551;SDS011;63025;55.472;38.432;2024-03-25T13:20:23;6.75;;;3.97;;
74551;SDS011;63025;55.472;38.432;2024-03-25T13:22:49;9.40;;;3.80;;
74551;SDS011;63025;55.472;38.432;2024-03-25T13:25:18;7.97;;;3.58;;
74551;SDS011;63025;55.472;38.432;2024-03-25T13:27:44;7.32;;;4.03;;
74551;SDS011;63025;55.472;38.432;2024-03-25T13:30:10;9.00;;;4.28;;
74551;SDS011;63025;55.472;38.432;2024-03-25T13:32:36;8.43;;;4.35;;
74551;SDS011;63025;55.472;38.432;2024-03-25T13:35:02;8.88;;;4.70;;
74551;SDS011;63025;55.472;38.432;2024-03-25T13:37:29;7.32;;;3.85;;
74551;SDS011;63025;55.472;38.432;2024-03-25T13:39:55;11.75;;;4.32;;
74551;SDS011;63025;55.472;38.432;2024-03-25T13:42:21;9.38;;;4.25;;
74551;SDS011;63025;55.472;38.432;2024-03-25T13:44:47;8.90;;;4.60;;
74551;SDS011;63025;55.472;38.432;2024-03-25T13:47:13;10.63;;;4.85;;
74551;SDS011;63025;55.472;38.432;2024-03-25T13:49:38;8.55;;;4.57;;
74551;SDS011;63025;55.472;38.432;2024-03-25T13:52:04;8.45;;;4.47;;
74551;SDS011;63025;55.472;38.432;2024-03-25T13:54:30;8.02;;;4.80;;
74551;SDS011;63025;55.472;38.432;2024-03-25T13:56:56;7.18;;;4.53;;
74551;SDS011;63025;55.472;38.432;2024-03-25T13:59:23;7.15;;;4.53;;
74551;SDS011;63025;55.472;38.432;2024-03-25T14:01:49;10.48;;;4.75;;
74551;SDS011;63025;55.472;38.432;2024-03-25T14:04:15;9.02;;;4.95;;
74551;SDS011;63025;55.472;38.432;2024-03-25T14:06:40;10.65;;;5.20;;
74551;SDS011;63025;55.472;38.432;2024-03-25T14:09:07;13.63;;;4.50;;
74551;SDS011;63025;55.472;38.432;2024-03-25T14:11:34;9.18;;;4.60;;
74551;SDS011;63025;55.472;38.432;2024-03-25T14:14:01;6.53;;;4.38;;
74551;SDS011;63025;55.472;38.432;2024-03-25T14:16:30;10.25;;;4.70;;
74551;SDS011;63025;55.472;38.432;2024-03-25T14:18:56;8.13;;;4.60;;
74551;SDS011;63025;55.472;38.432;2024-03-25T14:21:22;9.73;;;5.00;;
74551;SDS011;63025;55.472;38.432;2024-03-25T14:23:48;8.48;;;4.72;;
74551;SDS011;63025;55.472;38.432;2024-03-25T14:26:13;7.72;;;4.38;;
74551;SDS011;63025;55.472;38.432;2024-03-25T14:28:42;6.20;;;3.92;;
74551;SDS011;63025;55.472;38.432;2024-03-25T14:31:08;8.90;;;4.47;;
74551;SDS011;63025;55.472;38.432;2024-03-25T14:33:34;7.10;;;4.32;;
74551;SDS011;63025;55.472;38.432;2024-03-25T14:36:00;7.57;;;4.28;;